Katy, TX

5:22 PM CST on December 18, 2014 (GMT -0600)
Waterstone | Change Station
CLOSE
Current Station
Personal Weather Station
Location: Katy, TX
Elevation: 135 ft
Nearby Weather Stations

Elev 135 ft 29.82 °N, 95.76 °W | Updated 23 seconds ago

Overcast
Overcast
67.6 °F
Feels Like 67.6 °F
N
2.2
Wind Variable Wind from WNW

Today
High -- | Low -- °F
--% Chance of Precip.
Yesterday
High -- | Low -- °F
Precip. -- in
7:12 AM 5:26 PM
Waning Crescent, 11% visible
Pressure 30.04 in
Visibility 10.0 miles
Clouds Mostly Cloudy 2200 ft
Overcast 3900 ft
Dew Point 64 °F
Humidity 89%
Rainfall 0.05 in
Snow Depth Not available.
UV 0 out of 12
Pollen 4.40 out of 12
Air Quality Not available.
Flu Activity Not available.
METAR KTME 182315Z AUTO 02006KT 10SM BKN022 OVC039 19/16 A3004 RMK AO2

More Conditions Fewer Conditions

Pressure 30.04 in
Visibility 10.0 miles
Clouds Mostly Cloudy 2200 ft
Overcast 3900 ft
Dew Point 64 °F
Humidity 89%
Rainfall 0.05 in
Snow Depth Not available.
UV 0 out of 12
Pollen 4.40 out of 12
Air Quality Not available.
Flu Activity Not available.
METAR KTME 182315Z AUTO 02006KT 10SM BKN022 OVC039 19/16 A3004 RMK AO2

More Conditions Fewer Conditions

10-Day Weather Forecast

Almanac

Astronomy

Dec. 18, 2014 Rise Set
Actual Time
Civil Twilight
Nautical Twilight
Astronomical Twilight
Moon
Length of Visible Light
Length of Day
Tomorrow will be .
, % of the Moon is Illuminated

Today's Extremes

State Highs State Lows

Community

WunderPhotos

Upload Photos

1,779,017 photos uploaded!

WunderBlogs® & News

Nearby

Air Quality

  Air Quality AQ Index Pollutant
Not available.

Snow Depth

Station Depth Elevation

Earthquake Activity

City Distance Mag. Time & Date
Minimum magnitude displayed is 2.5.

Coastal Water Temperatures

Place Temperature

Nearby Weather Stations